sensor_id;sensor_type;location;lat;lon;timestamp;pressure;altitude;pressure_sealevel;temperature;humidity
73516;BME280;61763;51.416;5.442;2023-06-14T00:00:12;101253.16;;;18.07;56.69
73516;BME280;61763;51.416;5.442;2023-06-14T00:02:40;101251.25;;;17.96;57.10
73516;BME280;61763;51.416;5.442;2023-06-14T00:05:07;101254.47;;;18.01;57.49
73516;BME280;61763;51.416;5.442;2023-06-14T00:07:37;101258.72;;;18.06;56.93
73516;BME280;61763;51.416;5.442;2023-06-14T00:10:10;101256.94;;;17.93;58.33
73516;BME280;61763;51.416;5.442;2023-06-14T00:12:38;101255.69;;;17.97;57.19
73516;BME280;61763;51.416;5.442;2023-06-14T00:15:04;101254.94;;;17.95;56.81
73516;BME280;61763;51.416;5.442;2023-06-14T00:17:32;101253.06;;;17.96;55.78
73516;BME280;61763;51.416;5.442;2023-06-14T00:19:58;101253.75;;;17.99;55.87
73516;BME280;61763;51.416;5.442;2023-06-14T00:22:24;101263.09;;;18.08;54.87
73516;BME280;61763;51.416;5.442;2023-06-14T00:24:51;101267.91;;;18.04;54.83
73516;BME280;61763;51.416;5.442;2023-06-14T00:27:16;101271.09;;;17.98;55.46
73516;BME280;61763;51.416;5.442;2023-06-14T00:29:41;101268.94;;;17.91;56.31
73516;BME280;61763;51.416;5.442;2023-06-14T00:32:07;101269.81;;;17.91;55.82
73516;BME280;61763;51.416;5.442;2023-06-14T00:34:33;101261.06;;;17.86;56.53
73516;BME280;61763;51.416;5.442;2023-06-14T00:36:59;101270.88;;;17.89;55.55
73516;BME280;61763;51.416;5.442;2023-06-14T00:39:24;101268.06;;;17.90;55.46
73516;BME280;61763;51.416;5.442;2023-06-14T00:41:49;101273.50;;;17.90;55.15
73516;BME280;61763;51.416;5.442;2023-06-14T00:44:16;101276.69;;;17.84;54.98
73516;BME280;61763;51.416;5.442;2023-06-14T00:46:42;101272.19;;;17.96;53.65
73516;BME280;61763;51.416;5.442;2023-06-14T00:49:09;101269.34;;;17.97;53.92
73516;BME280;61763;51.416;5.442;2023-06-14T00:51:36;101265.41;;;17.89;53.93
73516;BME280;61763;51.416;5.442;2023-06-14T00:54:02;101263.56;;;17.89;53.48
73516;BME280;61763;51.416;5.442;2023-06-14T00:56:28;101271.78;;;17.76;54.01
73516;BME280;61763;51.416;5.442;2023-06-14T00:58:54;101266.22;;;17.78;54.06
73516;BME280;61763;51.416;5.442;2023-06-14T01:01:20;101270.88;;;17.89;53.26
73516;BME280;61763;51.416;5.442;2023-06-14T01:03:45;101269.69;;;17.80;53.34
73516;BME280;61763;51.416;5.442;2023-06-14T01:06:31;101265.03;;;17.69;53.79
73516;BME280;61763;51.416;5.442;2023-06-14T01:12:13;101265.50;;;17.63;53.94
73516;BME280;61763;51.416;5.442;2023-06-14T01:14:39;101264.94;;;17.58;54.06
73516;BME280;61763;51.416;5.442;2023-06-14T01:17:07;101264.28;;;17.67;53.33
73516;BME280;61763;51.416;5.442;2023-06-14T01:19:41;101260.63;;;17.55;53.88
73516;BME280;61763;51.416;5.442;2023-06-14T01:22:07;101276.03;;;17.80;52.44
73516;BME280;61763;51.416;5.442;2023-06-14T01:24:33;101266.56;;;17.73;52.52
73516;BME280;61763;51.416;5.442;2023-06-14T01:27:00;101269.63;;;17.68;52.55
73516;BME280;61763;51.416;5.442;2023-06-14T01:29:28;101268.44;;;17.73;52.23
73516;BME280;61763;51.416;5.442;2023-06-14T01:31:58;101270.97;;;17.63;52.61
73516;BME280;61763;51.416;5.442;2023-06-14T01:34:24;101270.97;;;17.50;53.03
73516;BME280;61763;51.416;5.442;2023-06-14T01:36:49;101261.25;;;17.46;53.09
73516;BME280;61763;51.416;5.442;2023-06-14T01:39:15;101271.88;;;17.50;53.49
73516;BME280;61763;51.416;5.442;2023-06-14T01:41:44;101270.25;;;17.35;53.75
73516;BME280;61763;51.416;5.442;2023-06-14T01:44:12;101269.03;;;17.26;54.17
73516;BME280;61763;51.416;5.442;2023-06-14T01:46:38;101274.28;;;17.16;55.08
73516;BME280;61763;51.416;5.442;2023-06-14T01:49:05;101273.31;;;17.17;54.89
73516;BME280;61763;51.416;5.442;2023-06-14T01:51:30;101272.88;;;17.11;55.33
73516;BME280;61763;51.416;5.442;2023-06-14T01:53:56;101264.38;;;17.03;55.77
73516;BME280;61763;51.416;5.442;2023-06-14T01:56:22;101267.19;;;17.01;55.62
73516;BME280;61763;51.416;5.442;2023-06-14T01:58:47;101267.75;;;16.93;56.18
73516;BME280;61763;51.416;5.442;2023-06-14T02:01:13;101266.00;;;16.92;55.96
73516;BME280;61763;51.416;5.442;2023-06-14T02:03:41;101276.53;;;16.84;56.36
73516;BME280;61763;51.416;5.442;2023-06-14T02:06:07;101262.53;;;16.90;56.49
73516;BME280;61763;51.416;5.442;2023-06-14T02:08:33;101271.06;;;16.84;56.75
73516;BME280;61763;51.416;5.442;2023-06-14T02:10:58;101269.84;;;16.75;57.24
73516;BME280;61763;51.416;5.442;2023-06-14T02:13:23;101274.41;;;16.62;57.88
73516;BME280;61763;51.416;5.442;2023-06-14T02:15:49;101275.97;;;16.66;57.52
73516;BME280;61763;51.416;5.442;2023-06-14T02:18:20;101274.44;;;16.75;57.33
73516;BME280;61763;51.416;5.442;2023-06-14T02:20:45;101270.19;;;16.71;57.41
73516;BME280;61763;51.416;5.442;2023-06-14T02:23:10;101269.84;;;16.75;56.92
73516;BME280;61763;51.416;5.442;2023-06-14T02:25:36;101274.31;;;16.63;57.65
73516;BME280;61763;51.416;5.442;2023-06-14T02:28:01;101276.59;;;16.57;58.23
73516;BME280;61763;51.416;5.442;2023-06-14T02:30:26;101285.53;;;16.59;58.20
73516;BME280;61763;51.416;5.442;2023-06-14T02:32:52;101272.50;;;16.37;58.68
73516;BME280;61763;51.416;5.442;2023-06-14T02:35:18;101281.56;;;16.37;59.10
73516;BME280;61763;51.416;5.442;2023-06-14T02:37:45;101275.97;;;16.26;59.72
73516;BME280;61763;51.416;5.442;2023-06-14T02:40:11;101287.66;;;16.41;58.92
73516;BME280;61763;51.416;5.442;2023-06-14T02:42:37;101283.97;;;16.42;58.59
73516;BME280;61763;51.416;5.442;2023-06-14T02:45:02;101284.56;;;16.33;59.66
73516;BME280;61763;51.416;5.442;2023-06-14T02:47:29;101283.59;;;16.34;59.42
73516;BME280;61763;51.416;5.442;2023-06-14T02:49:55;101281.56;;;16.37;59.15
73516;BME280;61763;51.416;5.442;2023-06-14T02:52:20;101288.50;;;16.28;59.70
73516;BME280;61763;51.416;5.442;2023-06-14T02:54:47;101290.25;;;16.29;59.80
73516;BME280;61763;51.416;5.442;2023-06-14T02:57:12;101295.94;;;16.12;60.64
73516;BME280;61763;51.416;5.442;2023-06-14T02:59:37;101294.97;;;16.13;60.76
73516;BME280;61763;51.416;5.442;2023-06-14T03:02:03;101288.34;;;16.17;60.74
73516;BME280;61763;51.416;5.442;2023-06-14T03:04:28;101291.28;;;16.14;60.64
73516;BME280;61763;51.416;5.442;2023-06-14T03:06:54;101298.53;;;16.01;61.46
73516;BME280;61763;51.416;5.442;2023-06-14T03:09:21;101306.41;;;15.91;62.41
73516;BME280;61763;51.416;5.442;2023-06-14T03:11:47;101299.78;;;15.95;61.74
73516;BME280;61763;51.416;5.442;2023-06-14T03:14:12;101310.41;;;15.85;62.22
73516;BME280;61763;51.416;5.442;2023-06-14T03:16:38;101307.38;;;15.75;63.16
73516;BME280;61763;51.416;5.442;2023-06-14T03:19:04;101303.88;;;15.73;63.25
73516;BME280;61763;51.416;5.442;2023-06-14T03:21:29;101314.50;;;15.64;63.66
73516;BME280;61763;51.416;5.442;2023-06-14T03:23:55;101307.41;;;15.61;64.26
73516;BME280;61763;51.416;5.442;2023-06-14T03:26:21;101308.16;;;15.49;65.15
73516;BME280;61763;51.416;5.442;2023-06-14T03:28:47;101311.38;;;15.41;65.89
73516;BME280;61763;51.416;5.442;2023-06-14T03:31:14;101310.03;;;15.48;65.71
73516;BME280;61763;51.416;5.442;2023-06-14T03:33:41;101308.47;;;15.44;65.79
73516;BME280;61763;51.416;5.442;2023-06-14T03:36:07;101310.53;;;15.55;65.56
73516;BME280;61763;51.416;5.442;2023-06-14T03:38:33;101314.69;;;15.46;66.03
73516;BME280;61763;51.416;5.442;2023-06-14T03:40:59;101324.31;;;15.52;65.66
73516;BME280;61763;51.416;5.442;2023-06-14T03:43:24;101322.25;;;15.55;65.66
73516;BME280;61763;51.416;5.442;2023-06-14T03:45:50;101322.66;;;15.49;66.27
73516;BME280;61763;51.416;5.442;2023-06-14T03:48:15;101319.34;;;15.58;65.53
73516;BME280;61763;51.416;5.442;2023-06-14T03:50:41;101326.75;;;15.56;66.16
73516;BME280;61763;51.416;5.442;2023-06-14T03:53:08;101321.88;;;15.47;66.79
73516;BME280;61763;51.416;5.442;2023-06-14T03:55:33;101319.44;;;15.42;66.68
73516;BME280;61763;51.416;5.442;2023-06-14T03:57:59;101322.47;;;15.38;67.62
73516;BME280;61763;51.416;5.442;2023-06-14T04:00:25;101324.78;;;15.44;67.37
73516;BME280;61763;51.416;5.442;2023-06-14T04:02:51;101330.44;;;15.55;66.97
73516;BME280;61763;51.416;5.442;2023-06-14T04:05:16;101332.59;;;15.50;67.06
73516;BME280;61763;51.416;5.442;2023-06-14T04:07:44;101325.56;;;15.46;67.86
73516;BME280;61763;51.416;5.442;2023-06-14T04:10:11;101333.34;;;15.52;67.57
73516;BME280;61763;51.416;5.442;2023-06-14T04:12:37;101330.03;;;15.47;67.93
73516;BME280;61763;51.416;5.442;2023-06-14T04:15:03;101337.13;;;15.50;68.09
73516;BME280;61763;51.416;5.442;2023-06-14T04:17:28;101338.38;;;15.44;68.49
73516;BME280;61763;51.416;5.442;2023-06-14T04:19:54;101340.91;;;15.47;68.90
73516;BME280;61763;51.416;5.442;2023-06-14T04:22:20;101342.38;;;15.53;68.19
73516;BME280;61763;51.416;5.442;2023-06-14T04:24:46;101338.50;;;15.57;68.08
73516;BME280;61763;51.416;5.442;2023-06-14T04:27:11;101343.63;;;15.62;68.12
73516;BME280;61763;51.416;5.442;2023-06-14T04:29:37;101344.63;;;15.61;68.60
73516;BME280;61763;51.416;5.442;2023-06-14T04:32:02;101342.56;;;15.64;68.24
73516;BME280;61763;51.416;5.442;2023-06-14T04:34:28;101344.13;;;15.68;68.19
73516;BME280;61763;51.416;5.442;2023-06-14T04:36:55;101337.69;;;15.69;67.82
73516;BME280;61763;51.416;5.442;2023-06-14T04:39:22;101343.72;;;15.74;68.00
73516;BME280;61763;51.416;5.442;2023-06-14T04:41:48;101339.16;;;15.75;68.18
73516;BME280;61763;51.416;5.442;2023-06-14T04:44:18;101339.78;;;15.80;68.29
73516;BME280;61763;51.416;5.442;2023-06-14T04:46:45;101345.78;;;15.85;67.72
73516;BME280;61763;51.416;5.442;2023-06-14T04:49:17;101352.56;;;15.92;67.51
73516;BME280;61763;51.416;5.442;2023-06-14T04:51:43;101354.78;;;16.00;66.60
73516;BME280;61763;51.416;5.442;2023-06-14T04:54:10;101352.03;;;16.15;66.32
73516;BME280;61763;51.416;5.442;2023-06-14T04:56:40;101353.03;;;16.14;66.56
73516;BME280;61763;51.416;5.442;2023-06-14T04:59:05;101351.94;;;16.16;66.78
73516;BME280;61763;51.416;5.442;2023-06-14T05:01:31;101347.53;;;16.28;66.13
73516;BME280;61763;51.416;5.442;2023-06-14T05:03:57;101351.81;;;16.32;66.32
73516;BME280;61763;51.416;5.442;2023-06-14T05:06:23;101360.56;;;16.37;66.49
73516;BME280;61763;51.416;5.442;2023-06-14T05:08:49;101348.56;;;16.40;66.07
73516;BME280;61763;51.416;5.442;2023-06-14T05:11:14;101354.38;;;16.48;66.12
73516;BME280;61763;51.416;5.442;2023-06-14T05:13:39;101354.94;;;16.53;65.19
73516;BME280;61763;51.416;5.442;2023-06-14T05:16:06;101358.38;;;16.70;65.19
73516;BME280;61763;51.416;5.442;2023-06-14T05:18:31;101356.31;;;16.73;65.66
73516;BME280;61763;51.416;5.442;2023-06-14T05:20:59;101354.81;;;16.82;64.12
73516;BME280;61763;51.416;5.442;2023-06-14T05:23:25;101362.94;;;16.96;63.24
73516;BME280;61763;51.416;5.442;2023-06-14T05:25:50;101369.44;;;17.21;62.46
73516;BME280;61763;51.416;5.442;2023-06-14T05:28:16;101365.69;;;17.22;61.26
73516;BME280;61763;51.416;5.442;2023-06-14T05:30:41;101369.75;;;17.42;61.80
73516;BME280;61763;51.416;5.442;2023-06-14T05:33:07;101359.72;;;17.56;61.19
73516;BME280;61763;51.416;5.442;2023-06-14T05:35:32;101370.28;;;17.60;60.28
73516;BME280;61763;51.416;5.442;2023-06-14T05:37:57;101368.66;;;17.58;60.22
73516;BME280;61763;51.416;5.442;2023-06-14T05:40:23;101359.47;;;17.72;60.34
73516;BME280;61763;51.416;5.442;2023-06-14T05:42:48;101362.50;;;17.80;60.33
73516;BME280;61763;51.416;5.442;2023-06-14T05:45:13;101375.44;;;17.91;60.01
73516;BME280;61763;51.416;5.442;2023-06-14T05:47:41;101373.44;;;18.06;59.45
73516;BME280;61763;51.416;5.442;2023-06-14T05:50:06;101371.53;;;18.19;58.58
73516;BME280;61763;51.416;5.442;2023-06-14T05:52:32;101375.06;;;18.45;57.76
73516;BME280;61763;51.416;5.442;2023-06-14T05:54:57;101368.81;;;18.43;57.13
73516;BME280;61763;51.416;5.442;2023-06-14T05:57:23;101384.66;;;18.51;57.15
73516;BME280;61763;51.416;5.442;2023-06-14T05:59:48;101375.75;;;18.60;56.57
73516;BME280;61763;51.416;5.442;2023-06-14T06:02:13;101389.38;;;18.73;56.49
73516;BME280;61763;51.416;5.442;2023-06-14T06:04:39;101384.47;;;18.65;55.60
73516;BME280;61763;51.416;5.442;2023-06-14T06:07:04;101381.00;;;18.87;54.82
73516;BME280;61763;51.416;5.442;2023-06-14T06:09:30;101383.88;;;18.97;54.77
73516;BME280;61763;51.416;5.442;2023-06-14T06:11:56;101385.63;;;19.34;53.52
73516;BME280;61763;51.416;5.442;2023-06-14T06:14:21;101395.69;;;19.33;53.45
73516;BME280;61763;51.416;5.442;2023-06-14T06:16:47;101393.22;;;19.41;53.04
73516;BME280;61763;51.416;5.442;2023-06-14T06:19:12;101390.75;;;19.50;53.31
73516;BME280;61763;51.416;5.442;2023-06-14T06:21:37;101388.38;;;19.56;52.73
73516;BME280;61763;51.416;5.442;2023-06-14T06:24:04;101395.75;;;19.67;52.91
73516;BME280;61763;51.416;5.442;2023-06-14T06:26:31;101408.81;;;19.75;51.79
73516;BME280;61763;51.416;5.442;2023-06-14T06:28:56;101404.84;;;19.90;51.01
73516;BME280;61763;51.416;5.442;2023-06-14T06:31:22;101396.03;;;19.87;50.62
73516;BME280;61763;51.416;5.442;2023-06-14T06:33:48;101396.53;;;20.03;50.79
73516;BME280;61763;51.416;5.442;2023-06-14T06:36:13;101407.00;;;19.87;50.44
73516;BME280;61763;51.416;5.442;2023-06-14T06:38:38;101406.72;;;20.12;50.07
73516;BME280;61763;51.416;5.442;2023-06-14T06:41:04;101416.19;;;20.20;48.67
73516;BME280;61763;51.416;5.442;2023-06-14T06:43:29;101409.84;;;20.19;50.25
73516;BME280;61763;51.416;5.442;2023-06-14T06:45:55;101415.31;;;20.30;49.23
73516;BME280;61763;51.416;5.442;2023-06-14T06:48:20;101426.88;;;20.34;49.48
73516;BME280;61763;51.416;5.442;2023-06-14T06:50:45;101425.09;;;20.56;49.34
73516;BME280;61763;51.416;5.442;2023-06-14T06:53:11;101424.19;;;20.78;48.35
73516;BME280;61763;51.416;5.442;2023-06-14T06:55:36;101426.03;;;20.89;48.33
73516;BME280;61763;51.416;5.442;2023-06-14T06:58:02;101426.97;;;20.99;47.42
73516;BME280;61763;51.416;5.442;2023-06-14T07:00:29;101425.72;;;21.03;46.73
73516;BME280;61763;51.416;5.442;2023-06-14T07:02:55;101428.06;;;21.29;46.05
73516;BME280;61763;51.416;5.442;2023-06-14T07:05:20;101437.25;;;21.39;45.39
73516;BME280;61763;51.416;5.442;2023-06-14T07:07:45;101430.63;;;21.42;44.55
73516;BME280;61763;51.416;5.442;2023-06-14T07:10:11;101428.66;;;21.44;44.97
73516;BME280;61763;51.416;5.442;2023-06-14T07:12:36;101439.97;;;21.50;43.59
73516;BME280;61763;51.416;5.442;2023-06-14T07:15:08;101439.84;;;21.52;43.84
73516;BME280;61763;51.416;5.442;2023-06-14T07:17:34;101443.63;;;21.51;42.84
73516;BME280;61763;51.416;5.442;2023-06-14T07:19:59;101444.94;;;21.57;42.69
73516;BME280;61763;51.416;5.442;2023-06-14T07:22:26;101449.88;;;21.84;42.76
73516;BME280;61763;51.416;5.442;2023-06-14T07:24:51;101450.88;;;21.83;42.43
73516;BME280;61763;51.416;5.442;2023-06-14T07:27:17;101452.00;;;21.80;42.10
73516;BME280;61763;51.416;5.442;2023-06-14T07:29:42;101452.28;;;21.77;41.97
73516;BME280;61763;51.416;5.442;2023-06-14T07:32:08;101447.84;;;21.86;41.16
73516;BME280;61763;51.416;5.442;2023-06-14T07:34:33;101454.47;;;22.04;41.27
73516;BME280;61763;51.416;5.442;2023-06-14T07:36:58;101454.38;;;22.16;41.82
73516;BME280;61763;51.416;5.442;2023-06-14T07:39:24;101447.44;;;22.21;40.85
73516;BME280;61763;51.416;5.442;2023-06-14T07:41:49;101460.00;;;22.14;40.81
73516;BME280;61763;51.416;5.442;2023-06-14T07:44:15;101461.22;;;22.31;40.28
73516;BME280;61763;51.416;5.442;2023-06-14T07:46:41;101463.72;;;22.34;40.50
73516;BME280;61763;51.416;5.442;2023-06-14T07:49:06;101463.38;;;22.59;40.52
73516;BME280;61763;51.416;5.442;2023-06-14T07:51:33;101467.38;;;22.45;40.30
73516;BME280;61763;51.416;5.442;2023-06-14T07:54:01;101467.94;;;22.38;40.04
73516;BME280;61763;51.416;5.442;2023-06-14T07:56:28;101464.81;;;22.63;39.65
73516;BME280;61763;51.416;5.442;2023-06-14T07:58:54;101478.03;;;22.69;39.92
73516;BME280;61763;51.416;5.442;2023-06-14T08:01:19;101473.25;;;22.90;40.44
73516;BME280;61763;51.416;5.442;2023-06-14T08:03:45;101478.94;;;22.99;40.31
73516;BME280;61763;51.416;5.442;2023-06-14T08:06:10;101479.56;;;23.12;39.66
73516;BME280;61763;51.416;5.442;2023-06-14T08:08:36;101480.41;;;23.13;39.75
73516;BME280;61763;51.416;5.442;2023-06-14T08:11:01;101483.16;;;23.13;39.95
73516;BME280;61763;51.416;5.442;2023-06-14T08:13:27;101477.97;;;23.19;38.99
73516;BME280;61763;51.416;5.442;2023-06-14T08:15:53;101478.53;;;23.33;38.93
73516;BME280;61763;51.416;5.442;2023-06-14T08:18:18;101473.59;;;23.56;38.45
73516;BME280;61763;51.416;5.442;2023-06-14T08:20:43;101469.34;;;23.71;38.02
73516;BME280;61763;51.416;5.442;2023-06-14T08:23:10;101478.16;;;23.85;37.24
73516;BME280;61763;51.416;5.442;2023-06-14T08:25:36;101472.03;;;24.10;36.47
73516;BME280;61763;51.416;5.442;2023-06-14T08:28:01;101475.75;;;23.91;37.22
73516;BME280;61763;51.416;5.442;2023-06-14T08:30:27;101470.38;;;23.90;36.46
73516;BME280;61763;51.416;5.442;2023-06-14T08:32:52;101472.72;;;23.55;36.58
73516;BME280;61763;51.416;5.442;2023-06-14T08:35:22;101473.28;;;23.88;36.58
73516;BME280;61763;51.416;5.442;2023-06-14T08:37:47;101468.84;;;24.05;36.04
73516;BME280;61763;51.416;5.442;2023-06-14T08:40:23;101468.81;;;24.25;36.13
73516;BME280;61763;51.416;5.442;2023-06-14T08:42:55;101478.03;;;24.89;36.06
73516;BME280;61763;51.416;5.442;2023-06-14T08:45:22;101469.13;;;24.95;34.86
73516;BME280;61763;51.416;5.442;2023-06-14T08:47:48;101473.63;;;24.78;33.99
73516;BME280;61763;51.416;5.442;2023-06-14T08:50:24;101470.31;;;25.11;35.09
73516;BME280;61763;51.416;5.442;2023-06-14T08:52:58;101469.16;;;25.13;32.93
73516;BME280;61763;51.416;5.442;2023-06-14T08:55:27;101468.47;;;24.83;33.72
73516;BME280;61763;51.416;5.442;2023-06-14T08:57:55;101472.78;;;25.32;32.94
73516;BME280;61763;51.416;5.442;2023-06-14T09:00:23;101472.50;;;24.89;33.78
73516;BME280;61763;51.416;5.442;2023-06-14T09:02:49;101474.09;;;24.92;33.33
73516;BME280;61763;51.416;5.442;2023-06-14T09:05:22;101477.59;;;25.12;33.02
73516;BME280;61763;51.416;5.442;2023-06-14T09:07:49;101474.88;;;24.84;32.96
73516;BME280;61763;51.416;5.442;2023-06-14T09:10:15;101486.56;;;25.14;32.33
73516;BME280;61763;51.416;5.442;2023-06-14T09:12:41;101474.66;;;25.49;31.42
73516;BME280;61763;51.416;5.442;2023-06-14T09:15:08;101469.81;;;25.69;30.38
73516;BME280;61763;51.416;5.442;2023-06-14T09:17:38;101479.63;;;25.64;29.65
73516;BME280;61763;51.416;5.442;2023-06-14T09:20:08;101477.66;;;25.82;30.27
73516;BME280;61763;51.416;5.442;2023-06-14T09:22:39;101476.78;;;25.56;29.14
73516;BME280;61763;51.416;5.442;2023-06-14T09:25:05;101476.88;;;25.90;29.67
73516;BME280;61763;51.416;5.442;2023-06-14T09:27:32;101469.44;;;25.91;29.33
73516;BME280;61763;51.416;5.442;2023-06-14T09:29:57;101468.78;;;26.15;28.29
73516;BME280;61763;51.416;5.442;2023-06-14T09:32:24;101481.84;;;25.86;28.17
73516;BME280;61763;51.416;5.442;2023-06-14T09:34:50;101480.13;;;25.59;28.15
73516;BME280;61763;51.416;5.442;2023-06-14T09:37:31;101475.47;;;25.86;27.00
73516;BME280;61763;51.416;5.442;2023-06-14T09:39:58;101481.78;;;26.22;26.70
73516;BME280;61763;51.416;5.442;2023-06-14T09:42:24;101483.34;;;26.25;26.64
73516;BME280;61763;51.416;5.442;2023-06-14T09:44:55;101481.31;;;25.83;26.11
73516;BME280;61763;51.416;5.442;2023-06-14T09:47:21;101479.66;;;25.72;27.27
73516;BME280;61763;51.416;5.442;2023-06-14T09:49:48;101486.38;;;25.43;27.38
73516;BME280;61763;51.416;5.442;2023-06-14T09:52:18;101473.31;;;26.32;25.80
73516;BME280;61763;51.416;5.442;2023-06-14T09:54:45;101490.38;;;26.54;26.03
73516;BME280;61763;51.416;5.442;2023-06-14T09:57:21;101486.63;;;25.76;25.96
73516;BME280;61763;51.416;5.442;2023-06-14T09:59:47;101483.28;;;26.17;26.29
73516;BME280;61763;51.416;5.442;2023-06-14T10:02:26;101484.56;;;26.31;26.65
73516;BME280;61763;51.416;5.442;2023-06-14T10:05:02;101479.84;;;26.57;26.71
73516;BME280;61763;51.416;5.442;2023-06-14T10:07:32;101474.66;;;26.63;27.08
73516;BME280;61763;51.416;5.442;2023-06-14T10:10:00;101467.22;;;25.68;25.64
73516;BME280;61763;51.416;5.442;2023-06-14T10:12:26;101466.94;;;26.74;25.71
73516;BME280;61763;51.416;5.442;2023-06-14T10:14:52;101465.72;;;26.00;25.73
73516;BME280;61763;51.416;5.442;2023-06-14T10:17:30;101461.16;;;26.60;24.71
73516;BME280;61763;51.416;5.442;2023-06-14T10:22:37;101477.84;;;26.68;24.97
73516;BME280;61763;51.416;5.442;2023-06-14T10:25:13;101485.63;;;26.38;24.63
73516;BME280;61763;51.416;5.442;2023-06-14T10:27:50;101483.88;;;26.29;24.89
73516;BME280;61763;51.416;5.442;2023-06-14T10:30:16;101467.03;;;26.56;24.07
73516;BME280;61763;51.416;5.442;2023-06-14T10:33:09;101471.47;;;26.41;24.58
73516;BME280;61763;51.416;5.442;2023-06-14T10:35:35;101484.75;;;26.03;24.97
73516;BME280;61763;51.416;5.442;2023-06-14T10:38:07;101469.97;;;26.20;25.02
73516;BME280;61763;51.416;5.442;2023-06-14T10:40:34;101470.84;;;26.55;24.73
73516;BME280;61763;51.416;5.442;2023-06-14T10:42:59;101471.91;;;26.63;25.39
73516;BME280;61763;51.416;5.442;2023-06-14T10:45:25;101470.06;;;26.02;25.85
73516;BME280;61763;51.416;5.442;2023-06-14T10:47:50;101470.44;;;26.42;25.20
73516;BME280;61763;51.416;5.442;2023-06-14T10:50:27;101478.56;;;26.35;26.14
73516;BME280;61763;51.416;5.442;2023-06-14T10:52:53;101475.84;;;27.11;25.21
73516;BME280;61763;51.416;5.442;2023-06-14T10:55:19;101467.22;;;27.22;24.51
73516;BME280;61763;51.416;5.442;2023-06-14T10:57:49;101467.25;;;27.55;24.91
73516;BME280;61763;51.416;5.442;2023-06-14T11:00:25;101467.03;;;27.73;24.46
73516;BME280;61763;51.416;5.442;2023-06-14T11:02:52;101482.63;;;27.17;24.89
73516;BME280;61763;51.416;5.442;2023-06-14T11:05:29;101467.13;;;26.73;25.57
73516;BME280;61763;51.416;5.442;2023-06-14T11:10:43;101479.94;;;26.74;25.18
73516;BME280;61763;51.416;5.442;2023-06-14T11:13:10;101473.41;;;26.91;25.61
73516;BME280;61763;51.416;5.442;2023-06-14T11:15:37;101465.28;;;26.98;25.50
73516;BME280;61763;51.416;5.442;2023-06-14T11:18:04;101463.38;;;27.23;25.07
73516;BME280;61763;51.416;5.442;2023-06-14T11:20:31;101465.50;;;27.38;24.78
73516;BME280;61763;51.416;5.442;2023-06-14T11:22:57;101469.13;;;27.38;24.30
73516;BME280;61763;51.416;5.442;2023-06-14T11:25:23;101460.31;;;27.35;25.00
73516;BME280;61763;51.416;5.442;2023-06-14T11:27:51;101456.69;;;27.42;25.77
73516;BME280;61763;51.416;5.442;2023-06-14T11:30:17;101461.00;;;27.70;25.32
73516;BME280;61763;51.416;5.442;2023-06-14T11:32:50;101460.66;;;27.65;25.31
73516;BME280;61763;51.416;5.442;2023-06-14T11:35:17;101459.09;;;27.54;24.44
73516;BME280;61763;51.416;5.442;2023-06-14T11:37:43;101454.75;;;27.84;24.91
73516;BME280;61763;51.416;5.442;2023-06-14T11:40:13;101463.22;;;27.08;25.19
73516;BME280;61763;51.416;5.442;2023-06-14T11:42:40;101464.13;;;27.67;24.58
73516;BME280;61763;51.416;5.442;2023-06-14T11:45:11;101451.25;;;27.99;23.95
73516;BME280;61763;51.416;5.442;2023-06-14T11:47:38;101460.06;;;27.94;24.44
73516;BME280;61763;51.416;5.442;2023-06-14T11:50:05;101451.63;;;27.30;25.59
73516;BME280;61763;51.416;5.442;2023-06-14T11:52:31;101445.72;;;26.91;26.09
73516;BME280;61763;51.416;5.442;2023-06-14T11:54:59;101457.34;;;27.03;26.36
73516;BME280;61763;51.416;5.442;2023-06-14T11:57:25;101455.09;;;27.65;26.23
73516;BME280;61763;51.416;5.442;2023-06-14T11:59:50;101444.13;;;28.04;26.30
73516;BME280;61763;51.416;5.442;2023-06-14T12:02:17;101452.31;;;27.98;26.37
73516;BME280;61763;51.416;5.442;2023-06-14T12:04:43;101450.91;;;28.41;25.95
73516;BME280;61763;51.416;5.442;2023-06-14T12:07:13;101453.84;;;28.00;26.64
73516;BME280;61763;51.416;5.442;2023-06-14T12:12:28;101465.13;;;27.24;26.31
73516;BME280;61763;51.416;5.442;2023-06-14T12:14:55;101457.00;;;27.31;26.61
73516;BME280;61763;51.416;5.442;2023-06-14T12:17:22;101449.53;;;27.23;27.20
73516;BME280;61763;51.416;5.442;2023-06-14T12:19:48;101457.19;;;27.54;27.06
73516;BME280;61763;51.416;5.442;2023-06-14T12:22:15;101449.22;;;27.18;26.89
73516;BME280;61763;51.416;5.442;2023-06-14T12:24:44;101453.69;;;27.11;27.08
73516;BME280;61763;51.416;5.442;2023-06-14T12:27:10;101452.00;;;27.51;27.29
73516;BME280;61763;51.416;5.442;2023-06-14T12:29:40;101439.00;;;27.68;26.68
73516;BME280;61763;51.416;5.442;2023-06-14T12:32:06;101431.53;;;27.27;26.24
73516;BME280;61763;51.416;5.442;2023-06-14T12:34:32;101456.22;;;26.71;27.53
73516;BME280;61763;51.416;5.442;2023-06-14T12:36:57;101454.59;;;26.61;26.95
73516;BME280;61763;51.416;5.442;2023-06-14T12:39:23;101460.59;;;26.48;27.28
73516;BME280;61763;51.416;5.442;2023-06-14T12:41:50;101454.84;;;26.84;27.23
73516;BME280;61763;51.416;5.442;2023-06-14T12:44:15;101449.56;;;27.32;26.03
73516;BME280;61763;51.416;5.442;2023-06-14T12:46:41;101453.19;;;27.32;26.35
73516;BME280;61763;51.416;5.442;2023-06-14T12:49:09;101459.09;;;26.62;26.48
73516;BME280;61763;51.416;5.442;2023-06-14T12:51:34;101464.63;;;26.19;28.10
73516;BME280;61763;51.416;5.442;2023-06-14T12:54:00;101449.88;;;26.53;27.33
73516;BME280;61763;51.416;5.442;2023-06-14T12:56:25;101454.91;;;27.00;26.70
73516;BME280;61763;51.416;5.442;2023-06-14T12:58:51;101452.13;;;27.08;26.44